createdAt,value
2023-02-12T00:00:04.042Z,1028.00
2023-02-12T00:01:03.388Z,1027.96
2023-02-12T00:02:03.481Z,1027.95
2023-02-12T00:03:03.409Z,1028.00
2023-02-12T00:04:03.430Z,1027.96
2023-02-12T00:05:03.430Z,1027.97
2023-02-12T00:06:03.465Z,1028.00
2023-02-12T00:07:03.457Z,1027.94
2023-02-12T00:08:03.467Z,1028.01
2023-02-12T00:09:03.489Z,1027.98
2023-02-12T00:10:03.490Z,1028.05
2023-02-12T00:11:03.504Z,1028.02
2023-02-12T00:12:03.517Z,1028.03
2023-02-12T00:13:03.526Z,1028.07
2023-02-12T00:14:03.547Z,1028.08
2023-02-12T00:15:03.550Z,1028.09
2023-02-12T00:16:03.737Z,1028.11
2023-02-12T00:17:03.570Z,1028.19
2023-02-12T00:18:03.587Z,1028.18
2023-02-12T00:19:03.601Z,1028.23
2023-02-12T00:20:03.605Z,1028.14
2023-02-12T00:21:03.622Z,1028.14
2023-02-12T00:22:03.627Z,1028.12
2023-02-12T00:23:03.645Z,1028.17
2023-02-12T00:24:03.652Z,1028.15
2023-02-12T00:25:03.665Z,1028.22
2023-02-12T00:26:03.676Z,1028.24
2023-02-12T00:27:03.693Z,1028.23
2023-02-12T00:28:03.790Z,1028.21
2023-02-12T00:29:03.712Z,1028.21
2023-02-12T00:30:03.723Z,1028.25
2023-02-12T00:31:03.831Z,1028.19
2023-02-12T00:32:03.746Z,1028.24
2023-02-12T00:33:03.755Z,1028.23
2023-02-12T00:34:03.777Z,1028.25
2023-02-12T00:35:03.782Z,1028.22
2023-02-12T00:36:03.798Z,1028.21
2023-02-12T00:37:03.805Z,1028.22
2023-02-12T00:38:03.815Z,1028.19
2023-02-12T00:39:03.826Z,1028.23
2023-02-12T00:40:03.836Z,1028.22
2023-02-12T00:41:03.851Z,1028.25
2023-02-12T00:42:03.865Z,1028.23
2023-02-12T00:43:03.873Z,1028.24
2023-02-12T00:44:03.886Z,1028.24
2023-02-12T00:45:03.896Z,1028.22
2023-02-12T00:46:03.962Z,1028.24
2023-02-12T00:47:03.920Z,1028.23
2023-02-12T00:48:03.932Z,1028.29
2023-02-12T00:49:03.943Z,1028.33
2023-02-12T00:50:03.957Z,1028.35
2023-02-12T00:51:03.965Z,1028.33
2023-02-12T00:52:03.974Z,1028.35
2023-02-12T00:53:03.998Z,1028.33
2023-02-12T00:54:04.008Z,1028.37
2023-02-12T00:55:04.018Z,1028.39
2023-02-12T00:56:04.035Z,1028.39
2023-02-12T00:57:04.040Z,1028.38
2023-02-12T00:58:04.049Z,1028.38
2023-02-12T00:59:04.059Z,1028.36
2023-02-12T01:00:04.069Z,1028.39
2023-02-12T01:01:04.102Z,1028.39
2023-02-12T01:02:04.093Z,1028.42
2023-02-12T01:03:04.122Z,1028.40
2023-02-12T01:04:04.116Z,1028.39
2023-02-12T01:05:04.253Z,1028.40
2023-02-12T01:06:04.150Z,1028.41
2023-02-12T01:07:04.151Z,1028.41
2023-02-12T01:08:04.161Z,1028.40
2023-02-12T01:09:04.178Z,1028.40
2023-02-12T01:10:04.188Z,1028.41
2023-02-12T01:11:04.199Z,1028.40
2023-02-12T01:12:04.210Z,1028.41
2023-02-12T01:13:04.224Z,1028.43
2023-02-12T01:14:04.239Z,1028.41
2023-02-12T01:15:04.250Z,1028.44
2023-02-12T01:16:04.418Z,1028.47
2023-02-12T01:17:04.268Z,1028.49
2023-02-12T01:18:04.283Z,1028.48
2023-02-12T01:19:04.304Z,1028.51
2023-02-12T01:20:04.303Z,1028.54
2023-02-12T01:21:04.315Z,1028.52
2023-02-12T01:22:04.331Z,1028.52
2023-02-12T01:23:04.343Z,1028.54
2023-02-12T01:24:04.358Z,1028.51
2023-02-12T01:25:04.367Z,1028.54
2023-02-12T01:26:04.378Z,1028.56
2023-02-12T01:27:04.387Z,1028.56
2023-02-12T01:28:04.417Z,1028.53
2023-02-12T01:29:04.421Z,1028.56
2023-02-12T01:30:04.422Z,1028.52
2023-02-12T01:31:04.528Z,1028.55
2023-02-12T01:32:04.557Z,1028.54
2023-02-12T01:33:04.458Z,1028.54
2023-02-12T01:34:04.468Z,1028.56
2023-02-12T01:35:04.479Z,1028.61
2023-02-12T01:36:04.491Z,1028.59
2023-02-12T01:37:04.500Z,1028.61
2023-02-12T01:38:04.521Z,1028.61
2023-02-12T01:39:04.524Z,1028.60
2023-02-12T01:40:04.544Z,1028.60
2023-02-12T01:41:04.549Z,1028.62
2023-02-12T01:42:04.562Z,1028.64
2023-02-12T01:43:04.572Z,1028.61
2023-02-12T01:44:04.581Z,1028.69
2023-02-12T01:45:04.594Z,1028.72
2023-02-12T01:46:04.674Z,1028.74
2023-02-12T01:47:04.624Z,1028.73
2023-02-12T01:48:04.629Z,1028.71
2023-02-12T01:49:04.644Z,1028.70
2023-02-12T01:50:04.652Z,1028.81
2023-02-12T01:51:04.665Z,1028.75
2023-02-12T01:52:04.681Z,1028.73
2023-02-12T01:53:04.696Z,1028.74
2023-02-12T01:54:04.701Z,1028.78
2023-02-12T01:55:04.726Z,1028.79
2023-02-12T01:56:04.721Z,1028.76
2023-02-12T01:57:04.746Z,1028.76
2023-02-12T01:58:04.752Z,1028.82
2023-02-12T01:59:04.761Z,1028.81
2023-02-12T02:00:04.768Z,1028.80
2023-02-12T02:01:04.786Z,1028.82
2023-02-12T02:02:04.877Z,1028.81
2023-02-12T02:03:04.826Z,1028.81
2023-02-12T02:04:04.815Z,1028.81
2023-02-12T02:05:04.828Z,1028.83
2023-02-12T02:06:04.841Z,1028.81
2023-02-12T02:07:04.863Z,1028.84
2023-02-12T02:08:04.877Z,1028.88
2023-02-12T02:09:04.909Z,1028.90
2023-02-12T02:10:04.888Z,1028.80
2023-02-12T02:11:04.897Z,1028.88
2023-02-12T02:12:04.930Z,1028.89
2023-02-12T02:13:04.923Z,1028.86
2023-02-12T02:14:04.929Z,1028.87
2023-02-12T02:15:04.957Z,1028.88
2023-02-12T02:16:04.961Z,1028.87
2023-02-12T02:17:04.971Z,1028.85
2023-02-12T02:18:04.988Z,1028.89
2023-02-12T02:19:04.989Z,1028.89
2023-02-12T02:20:05.015Z,1028.87
2023-02-12T02:21:05.008Z,1028.89
2023-02-12T02:22:05.021Z,1028.85
2023-02-12T02:23:05.030Z,1028.83
2023-02-12T02:24:05.045Z,1028.84
2023-02-12T02:25:05.065Z,1028.81
2023-02-12T02:26:05.068Z,1028.82
2023-02-12T02:27:10.823Z,1028.82
2023-02-12T02:28:05.116Z,1028.79
2023-02-12T02:29:05.103Z,1028.78
2023-02-12T02:30:05.110Z,1028.79
2023-02-12T02:31:05.210Z,1028.76
2023-02-12T02:32:05.171Z,1028.79
2023-02-12T02:33:05.145Z,1028.83
2023-02-12T02:34:05.155Z,1028.75
2023-02-12T02:35:05.169Z,1028.79
2023-02-12T02:36:05.182Z,1028.84
2023-02-12T02:37:05.224Z,1028.81
2023-02-12T02:38:05.203Z,1028.84
2023-02-12T02:39:05.215Z,1028.83
2023-02-12T02:40:05.232Z,1028.84
2023-02-12T02:41:05.241Z,1028.88
2023-02-12T02:42:05.249Z,1028.86
2023-02-12T02:43:05.264Z,1028.88
2023-02-12T02:44:05.270Z,1028.88
2023-02-12T02:45:05.284Z,1028.89
2023-02-12T02:46:05.295Z,1028.90
2023-02-12T02:47:05.310Z,1028.91
2023-02-12T02:48:05.322Z,1028.92
2023-02-12T02:49:05.329Z,1028.89
2023-02-12T02:50:05.341Z,1028.91
2023-02-12T02:51:05.367Z,1028.94
2023-02-12T02:52:05.367Z,1028.89
2023-02-12T02:53:05.391Z,1028.91
2023-02-12T02:54:05.388Z,1028.90
2023-02-12T02:55:05.400Z,1028.91
2023-02-12T02:56:05.416Z,1028.94
2023-02-12T02:57:05.422Z,1028.96
2023-02-12T02:58:05.452Z,1028.95
2023-02-12T02:59:05.448Z,1028.97
2023-02-12T03:00:05.458Z,1029.01
2023-02-12T03:01:05.558Z,1028.96
2023-02-12T03:02:05.479Z,1029.01
2023-02-12T03:03:05.596Z,1028.99
2023-02-12T03:04:05.512Z,1028.99
2023-02-12T03:05:05.531Z,1029.00
2023-02-12T03:06:05.570Z,1029.03
2023-02-12T03:07:05.539Z,1029.05
2023-02-12T03:08:05.575Z,1029.04
2023-02-12T03:09:05.556Z,1029.07
2023-02-12T03:10:05.583Z,1029.07
2023-02-12T03:11:05.583Z,1029.10
2023-02-12T03:12:05.597Z,1029.08
2023-02-12T03:13:05.620Z,1029.09
2023-02-12T03:14:05.616Z,1029.08
2023-02-12T03:15:05.636Z,1029.12
2023-02-12T03:16:05.708Z,1029.14
2023-02-12T03:17:05.649Z,1029.17
2023-02-12T03:18:05.662Z,1029.17
2023-02-12T03:19:05.673Z,1029.16
2023-02-12T03:20:05.691Z,1029.18
2023-02-12T03:21:05.725Z,1029.16
2023-02-12T03:22:05.726Z,1029.20
2023-02-12T03:23:05.723Z,1029.23
2023-02-12T03:24:05.736Z,1029.22
2023-02-12T03:25:05.747Z,1029.26
2023-02-12T03:26:05.759Z,1029.26
2023-02-12T03:27:05.769Z,1029.28
2023-02-12T03:28:05.811Z,1029.27
2023-02-12T03:29:05.790Z,1029.26
2023-02-12T03:30:05.801Z,1029.29
2023-02-12T03:31:05.858Z,1029.29
2023-02-12T03:32:05.828Z,1029.29
2023-02-12T03:33:05.838Z,1029.29
2023-02-12T03:34:05.852Z,1029.27
2023-02-12T03:35:05.862Z,1029.31
2023-02-12T03:36:05.880Z,1029.31
2023-02-12T03:37:05.902Z,1029.31
2023-02-12T03:38:05.898Z,1029.30
2023-02-12T03:39:05.910Z,1029.26
2023-02-12T03:40:05.919Z,1029.31
2023-02-12T03:41:05.930Z,1029.32
2023-02-12T03:42:05.940Z,1029.32
2023-02-12T03:43:05.953Z,1029.34
2023-02-12T03:44:05.966Z,1029.33
2023-02-12T03:45:05.977Z,1029.32
2023-02-12T03:46:06.054Z,1029.35
2023-02-12T03:47:06.008Z,1029.31
2023-02-12T03:48:06.009Z,1029.32
2023-02-12T03:49:06.030Z,1029.35
2023-02-12T03:50:06.037Z,1029.37
2023-02-12T03:51:06.056Z,1029.41
2023-02-12T03:52:06.061Z,1029.40
2023-02-12T03:53:06.075Z,1029.44
2023-02-12T03:54:06.080Z,1029.42
2023-02-12T03:55:06.092Z,1029.45
2023-02-12T03:56:06.110Z,1029.43
2023-02-12T03:57:06.111Z,1029.41
2023-02-12T03:58:06.125Z,1029.42
2023-02-12T03:59:06.134Z,1029.45
2023-02-12T04:00:06.143Z,1029.46
2023-02-12T04:01:06.250Z,1029.50
2023-02-12T04:02:06.287Z,1029.45
2023-02-12T04:03:06.194Z,1029.52
2023-02-12T04:04:06.237Z,1029.52
2023-02-12T04:05:06.204Z,1029.57
2023-02-12T04:06:06.214Z,1029.60
2023-02-12T04:07:06.226Z,1029.61
2023-02-12T04:08:06.240Z,1029.59
2023-02-12T04:09:06.248Z,1029.60
2023-02-12T04:10:06.257Z,1029.60
2023-02-12T04:11:06.276Z,1029.59
2023-02-12T04:12:06.281Z,1029.64
2023-02-12T04:13:06.299Z,1029.64
2023-02-12T04:14:06.315Z,1029.62
2023-02-12T04:15:06.336Z,1029.62
2023-02-12T04:16:06.326Z,1029.59
2023-02-12T04:17:06.339Z,1029.58
2023-02-12T04:18:06.351Z,1029.59
2023-02-12T04:19:06.362Z,1029.62
2023-02-12T04:20:06.371Z,1029.61
2023-02-12T04:21:06.382Z,1029.62
2023-02-12T04:22:06.405Z,1029.62
2023-02-12T04:23:06.412Z,1029.67
2023-02-12T04:24:06.425Z,1029.64
2023-02-12T04:25:06.437Z,1029.67
2023-02-12T04:26:06.451Z,1029.70
2023-02-12T04:27:06.469Z,1029.68
2023-02-12T04:28:06.512Z,1029.71
2023-02-12T04:29:06.494Z,1029.71
2023-02-12T04:30:06.503Z,1029.67
2023-02-12T04:31:06.581Z,1029.68
2023-02-12T04:32:06.518Z,1029.70
2023-02-12T04:33:06.527Z,1029.70
2023-02-12T04:34:06.539Z,1029.70
2023-02-12T04:35:06.556Z,1029.73
2023-02-12T04:36:06.561Z,1029.75
2023-02-12T04:37:06.585Z,1029.66
2023-02-12T04:38:06.602Z,1029.68
2023-02-12T04:39:06.597Z,1029.69
2023-02-12T04:40:06.609Z,1029.67
2023-02-12T04:41:06.621Z,1029.67
2023-02-12T04:42:06.634Z,1029.68
2023-02-12T04:43:06.648Z,1029.65
2023-02-12T04:44:06.673Z,1029.58
2023-02-12T04:45:06.680Z,1029.64
2023-02-12T04:46:06.791Z,1029.62
2023-02-12T04:47:06.701Z,1029.66
2023-02-12T04:48:06.704Z,1029.63
2023-02-12T04:49:06.716Z,1029.62
2023-02-12T04:50:06.732Z,1029.66
2023-02-12T04:51:06.752Z,1029.63
2023-02-12T04:52:06.759Z,1029.65
2023-02-12T04:53:06.762Z,1029.59
2023-02-12T04:54:06.776Z,1029.67
2023-02-12T04:55:06.794Z,1029.67
2023-02-12T04:56:06.796Z,1029.62
2023-02-12T04:57:06.807Z,1029.65
2023-02-12T04:58:06.823Z,1029.61
2023-02-12T04:59:06.832Z,1029.65
2023-02-12T05:00:06.848Z,1029.66
2023-02-12T05:01:06.914Z,1029.69
2023-02-12T05:02:06.870Z,1029.65
2023-02-12T05:03:06.879Z,1029.67
2023-02-12T05:04:06.889Z,1029.67
2023-02-12T05:05:06.944Z,1029.69
2023-02-12T05:06:06.913Z,1029.72
2023-02-12T05:07:06.930Z,1029.72
2023-02-12T05:08:06.949Z,1029.71
2023-02-12T05:09:06.947Z,1029.67
2023-02-12T05:10:06.960Z,1029.72
2023-02-12T05:11:06.976Z,1029.75
2023-02-12T05:12:06.989Z,1029.70
2023-02-12T05:13:06.994Z,1029.74
2023-02-12T05:14:07.005Z,1029.75
2023-02-12T05:15:07.020Z,1029.74
2023-02-12T05:16:07.232Z,1029.79
2023-02-12T05:17:07.042Z,1029.77
2023-02-12T05:18:07.063Z,1029.79
2023-02-12T05:19:07.065Z,1029.82
2023-02-12T05:20:07.076Z,1029.78
2023-02-12T05:21:07.116Z,1029.80
2023-02-12T05:22:07.099Z,1029.80
2023-02-12T05:23:07.113Z,1029.80
2023-02-12T05:24:07.122Z,1029.78
2023-02-12T05:25:07.135Z,1029.85
2023-02-12T05:26:07.152Z,1029.81
2023-02-12T05:27:07.156Z,1029.81
2023-02-12T05:28:07.249Z,1029.85
2023-02-12T05:29:07.186Z,1029.83
2023-02-12T05:30:07.193Z,1029.82
2023-02-12T05:31:07.400Z,1029.82
2023-02-12T05:32:07.312Z,1029.84
2023-02-12T05:33:07.228Z,1029.86
2023-02-12T05:34:07.240Z,1029.87
2023-02-12T05:35:07.274Z,1029.86
2023-02-12T05:36:07.289Z,1029.91
2023-02-12T05:37:07.274Z,1029.89
2023-02-12T05:38:07.288Z,1029.86
2023-02-12T05:39:07.305Z,1029.87
2023-02-12T05:40:07.313Z,1029.90
2023-02-12T05:41:07.325Z,1029.95
2023-02-12T05:42:07.335Z,1029.93
2023-02-12T05:43:07.346Z,1029.89
2023-02-12T05:44:07.354Z,1029.97
2023-02-12T05:45:07.366Z,1029.95
2023-02-12T05:46:07.434Z,1029.93
2023-02-12T05:47:07.392Z,1029.95
2023-02-12T05:48:07.401Z,1029.96
2023-02-12T05:49:07.412Z,1029.99
2023-02-12T05:50:07.426Z,1029.95
2023-02-12T05:51:07.441Z,1029.96
2023-02-12T05:52:07.449Z,1029.96
2023-02-12T05:53:07.458Z,1030.02
2023-02-12T05:54:07.489Z,1030.00
2023-02-12T05:55:07.481Z,1030.01
2023-02-12T05:56:07.495Z,1029.99
2023-02-12T05:57:07.504Z,1029.98
2023-02-12T05:58:07.517Z,1030.00
2023-02-12T05:59:07.533Z,1029.99
2023-02-12T06:00:07.539Z,1029.92
2023-02-12T06:01:07.554Z,1029.95
2023-02-12T06:02:07.567Z,1029.92
2023-02-12T06:03:07.576Z,1029.98
2023-02-12T06:04:07.674Z,1029.94
2023-02-12T06:05:07.608Z,1029.95
2023-02-12T06:06:07.610Z,1029.97
2023-02-12T06:07:07.626Z,1029.96
2023-02-12T06:08:07.632Z,1029.98
2023-02-12T06:09:07.651Z,1029.98
2023-02-12T06:10:07.658Z,1029.97
2023-02-12T06:11:07.670Z,1029.95
2023-02-12T06:12:07.681Z,1029.96
2023-02-12T06:13:07.688Z,1029.98
2023-02-12T06:14:07.701Z,1030.01
2023-02-12T06:15:07.714Z,1030.04
2023-02-12T06:16:07.748Z,1030.05
2023-02-12T06:17:07.744Z,1030.08
2023-02-12T06:18:07.749Z,1030.08
2023-02-12T06:19:07.760Z,1030.10
2023-02-12T06:20:07.772Z,1030.15
2023-02-12T06:21:07.786Z,1030.13
2023-02-12T06:22:07.795Z,1030.18
2023-02-12T06:23:07.815Z,1030.21
2023-02-12T06:24:07.820Z,1030.22
2023-02-12T06:25:07.845Z,1030.22
2023-02-12T06:26:07.843Z,1030.21
2023-02-12T06:27:07.868Z,1030.27
2023-02-12T06:28:07.878Z,1030.30
2023-02-12T06:29:07.884Z,1030.31
2023-02-12T06:30:07.892Z,1030.38
2023-02-12T06:31:07.967Z,1030.38
2023-02-12T06:32:07.983Z,1030.38
2023-02-12T06:33:07.928Z,1030.42
2023-02-12T06:34:07.941Z,1030.39
2023-02-12T06:35:07.955Z,1030.46
2023-02-12T06:36:07.960Z,1030.49
2023-02-12T06:37:07.974Z,1030.47
2023-02-12T06:38:07.986Z,1030.46
2023-02-12T06:39:08.000Z,1030.48
2023-02-12T06:40:08.017Z,1030.54
2023-02-12T06:41:08.023Z,1030.51
2023-02-12T06:42:08.040Z,1030.54
2023-02-12T06:43:08.047Z,1030.51
2023-02-12T06:44:08.057Z,1030.54
2023-02-12T06:45:08.079Z,1030.53
2023-02-12T06:46:08.156Z,1030.50
2023-02-12T06:47:08.093Z,1030.51
2023-02-12T06:48:08.104Z,1030.56
2023-02-12T06:49:08.115Z,1030.57
2023-02-12T06:50:08.127Z,1030.55
2023-02-12T06:51:08.145Z,1030.55
2023-02-12T06:52:08.152Z,1030.61
2023-02-12T06:53:08.164Z,1030.60
2023-02-12T06:54:08.175Z,1030.60
2023-02-12T06:55:08.187Z,1030.63
2023-02-12T06:56:08.197Z,1030.63
2023-02-12T06:57:08.208Z,1030.64
2023-02-12T06:58:08.221Z,1030.65
2023-02-12T06:59:08.235Z,1030.69
2023-02-12T07:00:08.245Z,1030.70
2023-02-12T07:01:08.300Z,1030.70
2023-02-12T07:02:08.275Z,1030.73
2023-02-12T07:03:08.282Z,1030.74
2023-02-12T07:04:08.359Z,1030.75
2023-02-12T07:05:08.304Z,1030.79
2023-02-12T07:06:08.314Z,1030.79
2023-02-12T07:07:08.326Z,1030.80
2023-02-12T07:08:08.340Z,1030.81
2023-02-12T07:09:08.349Z,1030.81
2023-02-12T07:10:08.360Z,1030.81
2023-02-12T07:11:08.377Z,1030.82
2023-02-12T07:12:08.380Z,1030.82
2023-02-12T07:13:08.393Z,1030.83
2023-02-12T07:14:08.406Z,1030.85
2023-02-12T07:15:08.419Z,1030.80
2023-02-12T07:16:08.448Z,1030.76
2023-02-12T07:17:08.443Z,1030.80
2023-02-12T07:18:08.457Z,1030.79
2023-02-12T07:19:08.468Z,1030.81
2023-02-12T07:20:08.475Z,1030.85
2023-02-12T07:21:08.488Z,1030.87
2023-02-12T07:22:08.509Z,1030.89
2023-02-12T07:23:08.513Z,1030.90
2023-02-12T07:24:08.526Z,1030.89
2023-02-12T07:25:08.536Z,1030.92
2023-02-12T07:26:08.548Z,1030.93
2023-02-12T07:27:08.571Z,1030.95
2023-02-12T07:28:08.600Z,1030.99
2023-02-12T07:29:08.586Z,1030.93
2023-02-12T07:30:08.605Z,1030.90
2023-02-12T07:31:08.704Z,1030.96
2023-02-12T07:32:08.676Z,1030.90
2023-02-12T07:33:08.644Z,1030.92
2023-02-12T07:34:08.654Z,1030.87
2023-02-12T07:35:08.662Z,1030.93
2023-02-12T07:36:08.676Z,1030.98
2023-02-12T07:37:08.679Z,1031.01
2023-02-12T07:38:08.695Z,1031.00
2023-02-12T07:39:08.730Z,1030.98
2023-02-12T07:40:08.712Z,1030.97
2023-02-12T07:41:10.598Z,1030.97
2023-02-12T07:42:08.740Z,1030.98
2023-02-12T07:43:08.755Z,1031.00
2023-02-12T07:44:08.765Z,1030.98
2023-02-12T07:45:08.775Z,1031.00
2023-02-12T07:46:08.852Z,1030.97
2023-02-12T07:47:08.808Z,1030.96
2023-02-12T07:48:08.809Z,1030.98
2023-02-12T07:49:08.826Z,1030.97
2023-02-12T07:50:08.836Z,1031.02
2023-02-12T07:51:08.860Z,1031.04
2023-02-12T07:52:09.347Z,1030.99
2023-02-12T07:53:08.874Z,1031.03
2023-02-12T07:54:08.888Z,1031.05
2023-02-12T07:55:08.898Z,1031.05
2023-02-12T07:56:08.908Z,1031.04
2023-02-12T07:57:08.922Z,1031.06
2023-02-12T07:58:08.933Z,1031.07
2023-02-12T07:59:08.950Z,1031.05
2023-02-12T08:00:08.958Z,1031.11
2023-02-12T08:01:08.971Z,1031.09
2023-02-12T08:02:09.011Z,1031.14
2023-02-12T08:03:08.995Z,1031.14
2023-02-12T08:04:09.050Z,1031.12
2023-02-12T08:05:09.019Z,1031.12
2023-02-12T08:06:09.031Z,1031.14
2023-02-12T08:07:09.049Z,1031.16
2023-02-12T08:08:09.057Z,1031.17
2023-02-12T08:09:09.071Z,1031.18
2023-02-12T08:10:09.095Z,1031.17
2023-02-12T08:11:09.096Z,1031.16
2023-02-12T08:12:09.108Z,1031.16
2023-02-12T08:13:09.122Z,1031.23
2023-02-12T08:14:09.134Z,1031.25
2023-02-12T08:15:09.144Z,1031.22
2023-02-12T08:16:09.182Z,1031.27
2023-02-12T08:17:09.172Z,1031.26
2023-02-12T08:18:09.185Z,1031.26
2023-02-12T08:19:17.891Z,1031.27
2023-02-12T08:20:09.219Z,1031.28
2023-02-12T08:21:09.226Z,1031.27
2023-02-12T08:22:09.254Z,1031.29
2023-02-12T08:23:09.258Z,1031.27
2023-02-12T08:24:09.264Z,1031.29
2023-02-12T08:25:09.282Z,1031.23
2023-02-12T08:26:09.298Z,1031.31
2023-02-12T08:27:09.303Z,1031.33
2023-02-12T08:28:09.393Z,1031.34
2023-02-12T08:29:09.334Z,1031.40
2023-02-12T08:30:09.337Z,1031.44
2023-02-12T08:31:09.458Z,1031.43
2023-02-12T08:32:09.382Z,1031.45
2023-02-12T08:33:09.376Z,1031.47
2023-02-12T08:34:09.392Z,1031.47
2023-02-12T08:35:09.404Z,1031.51
2023-02-12T08:36:09.435Z,1031.52
2023-02-12T08:37:09.430Z,1031.50
2023-02-12T08:38:09.442Z,1031.53
2023-02-12T08:39:09.456Z,1031.54
2023-02-12T08:40:09.467Z,1031.56
2023-02-12T08:41:09.587Z,1031.60
2023-02-12T08:42:09.511Z,1031.56
2023-02-12T08:43:09.508Z,1031.61
2023-02-12T08:44:09.525Z,1031.60
2023-02-12T08:45:09.545Z,1031.61
2023-02-12T08:46:09.645Z,1031.65
2023-02-12T08:47:09.557Z,1031.67
2023-02-12T08:48:09.581Z,1031.68
2023-02-12T08:49:09.587Z,1031.64
2023-02-12T08:50:09.597Z,1031.66
2023-02-12T08:51:09.620Z,1031.68
2023-02-12T08:52:09.636Z,1031.67
2023-02-12T08:53:09.635Z,1031.71
2023-02-12T08:54:09.646Z,1031.74
2023-02-12T08:55:09.661Z,1031.74
2023-02-12T08:56:09.676Z,1031.75
2023-02-12T08:57:09.686Z,1031.77
2023-02-12T08:58:09.701Z,1031.79
2023-02-12T08:59:09.712Z,1031.82
2023-02-12T09:00:09.726Z,1031.78
2023-02-12T09:01:09.770Z,1031.79
2023-02-12T09:02:09.802Z,1031.81
2023-02-12T09:03:09.765Z,1031.85
2023-02-12T09:04:09.777Z,1031.84
2023-02-12T09:05:09.793Z,1031.84
2023-02-12T09:06:09.804Z,1031.86
2023-02-12T09:07:10.933Z,1031.83
2023-02-12T09:08:09.833Z,1031.84
2023-02-12T09:09:09.843Z,1031.90
2023-02-12T09:10:09.857Z,1031.91
2023-02-12T09:11:09.871Z,1031.91
2023-02-12T09:12:09.884Z,1031.85
2023-02-12T09:13:09.898Z,1031.90
2023-02-12T09:14:09.914Z,1031.91
2023-02-12T09:15:09.925Z,1031.89
2023-02-12T09:16:09.939Z,1031.91
2023-02-12T09:17:09.952Z,1031.92
2023-02-12T09:18:09.967Z,1031.93
2023-02-12T09:19:09.980Z,1031.88
2023-02-12T09:20:09.990Z,1031.95
2023-02-12T09:21:10.007Z,1031.90
2023-02-12T09:22:10.021Z,1031.90
2023-02-12T09:23:10.039Z,1031.94
2023-02-12T09:24:10.064Z,1031.93
2023-02-12T09:25:10.073Z,1031.93
2023-02-12T09:26:10.123Z,1031.95
2023-02-12T09:27:10.091Z,1031.99
2023-02-12T09:28:10.157Z,1031.99
2023-02-12T09:29:10.121Z,1031.98
2023-02-12T09:30:10.137Z,1032.00
2023-02-12T09:31:10.264Z,1031.97
2023-02-12T09:32:10.211Z,1032.03
2023-02-12T09:33:10.175Z,1032.01
2023-02-12T09:34:10.192Z,1032.00
2023-02-12T09:35:10.205Z,1032.06
2023-02-12T09:36:10.220Z,1032.01
2023-02-12T09:37:10.233Z,1032.04
2023-02-12T09:38:10.245Z,1032.04
2023-02-12T09:39:10.264Z,1032.05
2023-02-12T09:40:10.273Z,1032.06
2023-02-12T09:41:10.285Z,1032.06
2023-02-12T09:42:10.303Z,1032.10
2023-02-12T09:43:10.323Z,1032.12
2023-02-12T09:44:10.331Z,1032.15
2023-02-12T09:45:10.351Z,1032.13
2023-02-12T09:46:10.403Z,1032.19
2023-02-12T09:47:10.372Z,1032.21
2023-02-12T09:48:10.388Z,1032.20
2023-02-12T09:49:10.406Z,1032.17
2023-02-12T09:50:10.415Z,1032.17
2023-02-12T09:51:10.426Z,1032.13
2023-02-12T09:52:10.448Z,1032.15
2023-02-12T09:53:10.459Z,1032.14
2023-02-12T09:54:10.494Z,1032.23
2023-02-12T09:55:10.492Z,1032.19
2023-02-12T09:56:10.534Z,1032.22
2023-02-12T09:57:10.518Z,1032.20
2023-02-12T09:58:10.541Z,1032.21
2023-02-12T09:59:10.551Z,1032.22
2023-02-12T10:00:10.564Z,1032.28
2023-02-12T10:01:10.601Z,1032.26
2023-02-12T10:02:10.593Z,1032.26
2023-02-12T10:03:10.609Z,1032.30
2023-02-12T10:04:10.667Z,1032.31
2023-02-12T10:05:10.677Z,1032.29
2023-02-12T10:06:10.653Z,1032.28
2023-02-12T10:07:10.671Z,1032.27
2023-02-12T10:08:10.683Z,1032.22
2023-02-12T10:09:10.697Z,1032.24
2023-02-12T10:10:10.718Z,1032.27
2023-02-12T10:11:10.728Z,1032.26
2023-02-12T10:12:10.741Z,1032.25
2023-02-12T10:13:10.773Z,1032.30
2023-02-12T10:14:10.775Z,1032.28
2023-02-12T10:15:10.786Z,1032.25
2023-02-12T10:16:10.823Z,1032.25
2023-02-12T10:17:10.821Z,1032.19
2023-02-12T10:18:10.833Z,1032.19
2023-02-12T10:19:10.846Z,1032.22
2023-02-12T10:20:10.859Z,1032.20
2023-02-12T10:21:10.887Z,1032.21
2023-02-12T10:22:10.890Z,1032.21
2023-02-12T10:23:10.910Z,1032.20
2023-02-12T10:24:10.918Z,1032.28
2023-02-12T10:25:10.949Z,1032.25
2023-02-12T10:26:10.952Z,1032.21
2023-02-12T10:27:10.973Z,1032.20
2023-02-12T10:28:11.023Z,1032.22
2023-02-12T10:29:10.992Z,1032.22
2023-02-12T10:30:11.009Z,1032.21
2023-02-12T10:31:11.135Z,1032.20
2023-02-12T10:32:11.048Z,1032.20
2023-02-12T10:33:11.050Z,1032.19
2023-02-12T10:34:11.064Z,1032.19
2023-02-12T10:35:11.078Z,1032.17
2023-02-12T10:36:11.091Z,1032.15
2023-02-12T10:37:11.108Z,1032.13
2023-02-12T10:38:11.120Z,1032.10
2023-02-12T10:39:11.135Z,1032.18
2023-02-12T10:40:11.148Z,1032.15
2023-02-12T10:41:11.177Z,1032.18
2023-02-12T10:42:11.183Z,1032.15
2023-02-12T10:43:11.191Z,1032.14
2023-02-12T10:44:11.207Z,1032.16
2023-02-12T10:45:11.223Z,1032.18
2023-02-12T10:46:11.263Z,1032.18
2023-02-12T10:47:11.256Z,1032.17
2023-02-12T10:48:11.261Z,1032.19
2023-02-12T10:49:11.276Z,1032.19
2023-02-12T10:50:11.292Z,1032.24
2023-02-12T10:51:11.308Z,1032.27
2023-02-12T10:52:11.319Z,1032.27
2023-02-12T10:53:11.333Z,1032.26
2023-02-12T10:54:11.349Z,1032.27
2023-02-12T10:55:11.365Z,1032.35
2023-02-12T10:56:11.378Z,1032.27
2023-02-12T10:57:11.389Z,1032.27
2023-02-12T10:58:11.406Z,1032.26
2023-02-12T10:59:11.418Z,1032.23
2023-02-12T11:00:11.436Z,1032.23
2023-02-12T11:01:11.444Z,1032.16
2023-02-12T11:02:11.461Z,1032.18
2023-02-12T11:03:11.477Z,1032.16
2023-02-12T11:04:11.489Z,1032.12
2023-02-12T11:05:11.530Z,1032.14
2023-02-12T11:06:11.529Z,1032.21
2023-02-12T11:07:11.545Z,1032.19
2023-02-12T11:08:11.548Z,1032.21
2023-02-12T11:09:11.560Z,1032.20
2023-02-12T11:10:11.577Z,1032.22
2023-02-12T11:11:11.590Z,1032.24
2023-02-12T11:12:11.605Z,1032.19
2023-02-12T11:13:11.619Z,1032.23
2023-02-12T11:14:11.636Z,1032.23
2023-02-12T11:15:11.649Z,1032.25
2023-02-12T11:16:11.764Z,1032.24
2023-02-12T11:17:11.678Z,1032.24
2023-02-12T11:18:11.694Z,1032.24
2023-02-12T11:19:11.707Z,1032.18
2023-02-12T11:20:11.721Z,1032.15
2023-02-12T11:21:11.736Z,1032.16
2023-02-12T11:22:11.766Z,1032.09
2023-02-12T11:23:11.760Z,1032.12
2023-02-12T11:24:11.776Z,1032.13
2023-02-12T11:25:11.787Z,1032.07
2023-02-12T11:26:11.804Z,1032.08
2023-02-12T11:27:11.816Z,1032.07
2023-02-12T11:28:11.967Z,1032.10
2023-02-12T11:29:11.952Z,1032.08
2023-02-12T11:30:11.861Z,1032.05
2023-02-12T11:31:11.928Z,1032.04
2023-02-12T11:32:11.892Z,1032.07
2023-02-12T11:33:11.902Z,1032.14
2023-02-12T11:34:11.916Z,1032.16
2023-02-12T11:35:11.933Z,1032.10
2023-02-12T11:36:11.943Z,1032.14
2023-02-12T11:37:11.957Z,1032.13
2023-02-12T11:38:11.977Z,1032.18
2023-02-12T11:39:11.986Z,1032.16
2023-02-12T11:40:12.001Z,1032.18
2023-02-12T11:41:12.016Z,1032.21
2023-02-12T11:42:12.032Z,1032.23
2023-02-12T11:43:12.044Z,1032.23
2023-02-12T11:44:12.062Z,1032.18
2023-02-12T11:45:12.071Z,1032.17
2023-02-12T11:46:12.090Z,1032.18
2023-02-12T11:47:12.123Z,1032.18
2023-02-12T11:48:12.113Z,1032.18
2023-02-12T11:49:12.130Z,1032.19
2023-02-12T11:50:12.143Z,1032.18
2023-02-12T11:51:12.156Z,1032.13
2023-02-12T11:52:12.174Z,1032.11
2023-02-12T11:53:12.185Z,1032.10
2023-02-12T11:54:12.199Z,1032.04
2023-02-12T11:55:12.214Z,1032.09
2023-02-12T11:56:12.227Z,1032.08
2023-02-12T11:57:12.243Z,1032.11
2023-02-12T11:58:12.258Z,1032.05
2023-02-12T11:59:12.273Z,1032.06
2023-02-12T12:00:12.283Z,1032.05
2023-02-12T12:01:12.314Z,1032.06
2023-02-12T12:02:12.395Z,1032.01
2023-02-12T12:03:12.385Z,1032.03
2023-02-12T12:04:12.341Z,1032.02
2023-02-12T12:05:12.355Z,1031.99